Aviation Digital Data Service (ADDS)

Output produced by METARs form (1442 UTC 21 April 2014)
found at http://aviationweather.gov/adds/metars/
 
KDUJ 211120Z 2112/2212 17006KT P6SM SCT250 
     FM220400 VRB05KT P6SM OVC120